createdAt,value
2018-07-06T00:02:39.876Z,21.32
2018-07-06T00:05:26.546Z,21.28
2018-07-06T00:08:07.037Z,21.23
2018-07-06T00:10:53.505Z,21.03
2018-07-06T00:13:40.143Z,20.95
2018-07-06T00:16:26.663Z,20.88
2018-07-06T00:19:13.245Z,20.65
2018-07-06T00:21:59.953Z,20.51
2018-07-06T00:24:46.430Z,20.37
2018-07-06T00:27:32.773Z,20.32
2018-07-06T00:30:19.443Z,20.27
2018-07-06T00:33:05.887Z,20.12
2018-07-06T00:35:52.448Z,20.18
2018-07-06T00:38:39.084Z,20.02
2018-07-06T00:41:25.391Z,20.10
2018-07-06T00:44:12.068Z,19.78
2018-07-06T00:46:59.445Z,19.65
2018-07-06T00:49:46.004Z,19.64
2018-07-06T00:52:32.259Z,19.67
2018-07-06T00:55:18.635Z,19.63
2018-07-06T00:58:05.424Z,19.63
2018-07-06T01:00:52.003Z,19.45
2018-07-06T01:03:38.359Z,19.30
2018-07-06T01:06:24.920Z,19.38
2018-07-06T01:09:11.407Z,19.22
2018-07-06T01:12:01.936Z,19.17
2018-07-06T01:14:48.522Z,19.09
2018-07-06T01:17:36.671Z,19.00
2018-07-06T01:20:23.511Z,18.99
2018-07-06T01:23:09.915Z,18.99
2018-07-06T01:25:57.848Z,18.83
2018-07-06T01:28:44.431Z,18.85
2018-07-06T01:31:31.111Z,18.83
2018-07-06T01:34:17.695Z,18.81
2018-07-06T01:37:04.984Z,18.66
2018-07-06T01:39:51.391Z,18.50
2018-07-06T01:42:37.815Z,18.45
2018-07-06T01:45:24.395Z,18.42
2018-07-06T01:48:10.923Z,18.25
2018-07-06T01:50:57.651Z,18.26
2018-07-06T01:53:44.111Z,18.24
2018-07-06T01:56:30.480Z,18.09
2018-07-06T01:59:17.039Z,17.99
2018-07-06T02:02:03.623Z,17.88
2018-07-06T02:04:49.984Z,17.84
2018-07-06T02:07:36.502Z,17.83
2018-07-06T02:10:23.395Z,17.80
2018-07-06T02:13:09.867Z,17.82
2018-07-06T02:15:56.200Z,17.80
2018-07-06T02:18:42.719Z,17.70
2018-07-06T02:21:29.580Z,17.62
2018-07-06T02:24:17.125Z,17.61
2018-07-06T02:27:03.939Z,17.55
2018-07-06T02:29:51.172Z,17.53
2018-07-06T02:32:37.843Z,17.53
2018-07-06T02:35:25.159Z,17.51
2018-07-06T02:38:11.755Z,17.39
2018-07-06T02:40:58.523Z,17.40
2018-07-06T02:43:46.007Z,17.40
2018-07-06T02:46:32.791Z,17.37
2018-07-06T02:49:19.899Z,17.31
2018-07-06T02:52:06.355Z,17.22
2018-07-06T02:54:52.842Z,17.10
2018-07-06T02:57:40.201Z,17.06
2018-07-06T03:00:27.564Z,17.05
2018-07-06T03:03:14.350Z,17.00
2018-07-06T03:06:01.091Z,17.01
2018-07-06T03:08:48.006Z,16.98
2018-07-06T03:11:28.495Z,16.98
2018-07-06T03:14:15.025Z,17.00
2018-07-06T03:17:02.280Z,17.02
2018-07-06T03:19:48.682Z,17.07
2018-07-06T03:22:35.326Z,17.04
2018-07-06T03:25:21.824Z,16.96
2018-07-06T03:28:08.382Z,16.93
2018-07-06T03:30:54.858Z,16.91
2018-07-06T03:33:41.525Z,16.90
2018-07-06T03:36:28.374Z,17.12
2018-07-06T03:39:15.004Z,17.27
2018-07-06T03:42:01.477Z,17.46
2018-07-06T03:44:47.943Z,17.67
2018-07-06T03:47:34.452Z,17.81
2018-07-06T03:50:21.103Z,17.98
2018-07-06T03:53:07.636Z,18.13
2018-07-06T03:55:54.194Z,18.21
2018-07-06T03:58:40.520Z,18.36
2018-07-06T04:01:26.792Z,18.44
2018-07-06T04:04:13.430Z,18.52
2018-07-06T04:07:00.137Z,18.60
2018-07-06T04:09:46.750Z,18.64
2018-07-06T04:12:33.446Z,18.67
2018-07-06T04:15:19.785Z,18.74
2018-07-06T04:18:06.389Z,18.91
2018-07-06T04:20:52.896Z,19.01
2018-07-06T04:23:39.555Z,19.19
2018-07-06T04:26:26.148Z,19.19
2018-07-06T04:29:12.662Z,19.38
2018-07-06T04:31:59.251Z,19.43
2018-07-06T04:34:45.739Z,19.48
2018-07-06T04:37:32.331Z,19.42
2018-07-06T04:40:18.965Z,19.49
2018-07-06T04:43:05.862Z,19.45
2018-07-06T04:45:52.205Z,19.53
2018-07-06T04:48:38.663Z,19.62
2018-07-06T04:51:25.257Z,19.68
2018-07-06T04:54:11.779Z,19.72
2018-07-06T04:56:58.263Z,19.68
2018-07-06T04:59:44.738Z,19.85
2018-07-06T05:02:31.258Z,19.97
2018-07-06T05:05:17.731Z,20.04
2018-07-06T05:08:04.359Z,20.02
2018-07-06T05:10:50.909Z,20.06
2018-07-06T05:13:37.443Z,19.99
2018-07-06T05:16:24.087Z,20.11
2018-07-06T05:19:10.531Z,20.02
2018-07-06T05:21:56.961Z,20.06
2018-07-06T05:24:43.717Z,20.10
2018-07-06T05:27:30.187Z,20.13
2018-07-06T05:30:16.833Z,20.29
2018-07-06T05:33:03.319Z,20.30
2018-07-06T05:35:43.851Z,20.17
2018-07-06T05:38:30.794Z,20.05
2018-07-06T05:41:17.695Z,19.87
2018-07-06T05:44:03.996Z,19.65
2018-07-06T05:46:50.573Z,19.52
2018-07-06T05:49:36.972Z,19.62
2018-07-06T05:52:23.604Z,19.62
2018-07-06T05:55:10.110Z,19.27
2018-07-06T05:57:56.737Z,19.39
2018-07-06T06:00:43.399Z,19.43
2018-07-06T06:03:29.964Z,19.61
2018-07-06T06:06:16.516Z,19.87
2018-07-06T06:08:44.588Z,19.93
2018-07-06T06:11:14.423Z,19.97
2018-07-06T06:13:45.255Z,19.85
2018-07-06T06:16:16.025Z,19.65
2018-07-06T06:18:46.549Z,19.64
2018-07-06T06:21:16.739Z,19.56
2018-07-06T06:23:47.245Z,19.74
2018-07-06T06:26:21.510Z,19.82
2018-07-06T06:28:51.313Z,19.74
2018-07-06T06:31:22.213Z,19.50
2018-07-06T06:33:53.033Z,19.33
2018-07-06T06:36:24.141Z,19.51
2018-07-06T06:38:58.632Z,19.79
2018-07-06T06:41:28.697Z,20.03
2018-07-06T06:43:58.767Z,20.02
2018-07-06T06:46:29.155Z,19.98
2018-07-06T06:48:59.101Z,19.86
2018-07-06T06:51:28.994Z,20.05
2018-07-06T06:54:00.046Z,20.64
2018-07-06T06:56:30.093Z,20.87
2018-07-06T06:59:00.395Z,21.15
2018-07-06T07:01:31.307Z,21.21
2018-07-06T07:04:01.273Z,21.46
2018-07-06T07:06:32.239Z,21.99
2018-07-06T07:09:02.279Z,21.81
2018-07-06T07:11:32.351Z,21.37
2018-07-06T07:14:02.289Z,21.28
2018-07-06T07:16:32.898Z,21.55
2018-07-06T07:19:02.951Z,21.59
2018-07-06T07:21:33.042Z,21.36
2018-07-06T07:24:03.025Z,21.34
2018-07-06T07:26:33.617Z,22.21
2018-07-06T07:29:03.542Z,22.05
2018-07-06T07:31:33.533Z,21.62
2018-07-06T07:34:03.535Z,21.20
2018-07-06T07:36:33.442Z,21.04
2018-07-06T07:39:03.691Z,21.17
2018-07-06T07:41:33.627Z,21.48
2018-07-06T07:44:03.513Z,21.57
2018-07-06T07:46:33.690Z,21.48
2018-07-06T07:49:05.284Z,21.35
2018-07-06T07:52:02.812Z,21.63
2018-07-06T07:54:52.987Z,21.61
2018-07-06T07:57:23.187Z,21.33
2018-07-06T07:59:56.893Z,20.97
2018-07-06T08:02:26.737Z,20.38
2018-07-06T08:04:56.637Z,20.33
2018-07-06T08:07:26.497Z,21.01
2018-07-06T08:09:56.628Z,21.20
2018-07-06T08:12:26.542Z,21.61
2018-07-06T08:14:56.445Z,21.90
2018-07-06T08:17:26.275Z,21.67
2018-07-06T08:19:56.127Z,21.63
2018-07-06T08:22:26.039Z,21.54
2018-07-06T08:24:56.025Z,21.49
2018-07-06T08:27:25.749Z,21.74
2018-07-06T08:29:55.493Z,21.60
2018-07-06T08:32:25.299Z,22.09
2018-07-06T08:35:11.804Z,22.02
2018-07-06T08:38:00.786Z,22.26
2018-07-06T08:40:30.733Z,21.90
2018-07-06T08:43:01.578Z,21.54
2018-07-06T08:45:32.407Z,21.35
2018-07-06T08:48:02.346Z,21.29
2018-07-06T08:50:32.367Z,21.22
2018-07-06T08:53:02.154Z,21.34
2018-07-06T08:55:32.222Z,21.55
2018-07-06T08:58:02.030Z,21.96
2018-07-06T09:00:31.852Z,21.92
2018-07-06T09:03:01.696Z,21.68
2018-07-06T09:05:31.633Z,21.51
2018-07-06T09:08:01.321Z,21.70
2018-07-06T09:10:31.259Z,21.87
2018-07-06T09:13:01.118Z,21.81
2018-07-06T09:15:30.882Z,22.31
2018-07-06T09:18:00.761Z,22.60
2018-07-06T09:20:30.654Z,22.99
2018-07-06T09:23:00.834Z,23.05
2018-07-06T09:25:30.769Z,22.71
2018-07-06T09:28:00.815Z,22.21
2018-07-06T09:30:30.897Z,22.18
2018-07-06T09:33:00.742Z,22.24
2018-07-06T09:35:30.642Z,22.30
2018-07-06T09:38:00.570Z,22.39
2018-07-06T09:40:30.836Z,23.01
2018-07-06T09:43:04.140Z,23.20
2018-07-06T09:45:34.572Z,23.13
2018-07-06T09:48:05.721Z,22.67
2018-07-06T09:50:36.657Z,23.00
2018-07-06T09:53:06.792Z,23.10
2018-07-06T09:55:36.736Z,23.58
2018-07-06T09:58:07.442Z,23.70
2018-07-06T10:00:43.228Z,23.47
2018-07-06T10:03:14.816Z,24.16
2018-07-06T10:05:44.905Z,24.62
2018-07-06T10:08:16.756Z,24.68
2018-07-06T10:10:47.110Z,24.41
2018-07-06T10:13:18.760Z,25.06
2018-07-06T10:15:50.132Z,25.22
2018-07-06T10:18:20.233Z,24.68
2018-07-06T10:20:52.341Z,24.49
2018-07-06T10:23:22.389Z,24.61
2018-07-06T10:25:52.168Z,24.82
2018-07-06T10:29:47.248Z,24.67
2018-07-06T10:32:24.025Z,24.25
2018-07-06T10:34:55.963Z,23.78
2018-07-06T10:37:27.087Z,24.46
2018-07-06T10:39:57.035Z,24.24
2018-07-06T10:42:27.809Z,24.34
2018-07-06T10:44:57.794Z,24.25
2018-07-06T10:47:27.630Z,23.69
2018-07-06T10:49:58.454Z,23.94
2018-07-06T10:52:42.629Z,24.09
2018-07-06T10:55:14.177Z,24.81
2018-07-06T10:57:44.365Z,25.40
2018-07-06T11:00:14.574Z,25.89
2018-07-06T11:02:45.034Z,24.93
2018-07-06T11:05:15.249Z,25.14
2018-07-06T11:07:50.032Z,25.71
2018-07-06T11:10:19.900Z,25.46
2018-07-06T11:12:51.134Z,25.17
2018-07-06T11:15:21.715Z,25.07
2018-07-06T11:17:51.999Z,24.76
2018-07-06T11:20:23.661Z,25.13
2018-07-06T11:22:54.188Z,25.20
2018-07-06T11:25:24.626Z,25.27
2018-07-06T11:27:55.339Z,25.53
2018-07-06T11:30:26.468Z,25.08
2018-07-06T11:32:57.378Z,25.16
2018-07-06T11:35:28.531Z,25.67
2018-07-06T11:37:58.882Z,25.10
2018-07-06T11:40:29.252Z,24.85
2018-07-06T11:42:59.093Z,25.39
2018-07-06T11:50:48.273Z,25.53
2018-07-06T11:53:18.557Z,25.34
2018-07-06T11:55:50.564Z,25.11
2018-07-06T11:58:20.418Z,24.89
2018-07-06T12:00:50.466Z,24.86
2018-07-06T12:03:20.275Z,24.52
2018-07-06T12:05:50.369Z,25.01
2018-07-06T12:08:21.312Z,24.93
2018-07-06T12:10:51.710Z,24.72
2018-07-06T12:13:22.501Z,25.20
2018-07-06T12:15:53.246Z,25.42
2018-07-06T12:18:24.214Z,25.15
2018-07-06T12:20:55.679Z,25.23
2018-07-06T12:23:27.097Z,25.17
2018-07-06T12:25:57.480Z,25.26
2018-07-06T12:28:26.937Z,25.12
2018-07-06T12:30:57.956Z,25.32
2018-07-06T12:33:28.292Z,24.89
2018-07-06T12:35:58.217Z,24.87
2018-07-06T12:38:28.364Z,24.93
2018-07-06T12:40:58.644Z,24.85
2018-07-06T12:43:28.520Z,24.70
2018-07-06T12:45:58.409Z,25.02
2018-07-06T12:48:28.810Z,24.66
2018-07-06T12:50:58.689Z,25.17
2018-07-06T12:53:28.803Z,25.21
2018-07-06T12:55:58.860Z,25.62
2018-07-06T12:58:28.935Z,25.53
2018-07-06T13:00:58.781Z,25.13
2018-07-06T13:03:28.720Z,25.09
2018-07-06T13:05:58.660Z,25.09
2018-07-06T13:08:29.416Z,25.21
2018-07-06T13:10:59.609Z,25.27
2018-07-06T13:13:29.457Z,25.52
2018-07-06T13:15:59.357Z,25.78
2018-07-06T13:18:29.213Z,25.52
2018-07-06T13:20:59.076Z,25.06
2018-07-06T13:23:29.646Z,24.89
2018-07-06T13:25:59.689Z,24.78
2018-07-06T13:28:29.462Z,24.72
2018-07-06T13:30:59.389Z,24.83
2018-07-06T13:33:34.958Z,24.96
2018-07-06T13:36:04.751Z,25.07
2018-07-06T13:38:34.629Z,25.37
2018-07-06T13:41:04.784Z,25.18
2018-07-06T13:43:34.654Z,25.18
2018-07-06T13:46:04.565Z,25.34
2018-07-06T13:48:34.396Z,25.34
2018-07-06T13:51:04.248Z,25.50
2018-07-06T13:53:34.039Z,25.57
2018-07-06T13:56:03.794Z,25.77
2018-07-06T13:58:33.735Z,25.40
2018-07-06T14:01:03.643Z,25.51
2018-07-06T14:03:33.582Z,25.79
2018-07-06T14:06:03.393Z,25.57
2018-07-06T14:08:33.311Z,24.23
2018-07-06T14:11:03.228Z,24.66
2018-07-06T14:13:33.135Z,24.86
2018-07-06T14:16:02.906Z,25.68
2018-07-06T14:18:32.775Z,25.51
2018-07-06T14:21:02.613Z,25.51
2018-07-06T14:23:32.839Z,25.88
2018-07-06T14:26:02.760Z,26.34
2018-07-06T14:28:32.583Z,26.42
2018-07-06T14:31:02.373Z,26.07
2018-07-06T14:33:32.196Z,25.98
2018-07-06T14:36:02.178Z,25.71
2018-07-06T14:38:31.982Z,25.52
2018-07-06T14:41:01.810Z,25.60
2018-07-06T14:43:31.665Z,25.64
2018-07-06T14:46:01.543Z,25.84
2018-07-06T14:48:31.347Z,25.61
2018-07-06T14:51:01.195Z,25.82
2018-07-06T14:53:31.607Z,25.65
2018-07-06T14:56:01.632Z,25.72
2018-07-06T14:58:31.978Z,25.13
2018-07-06T15:01:02.066Z,25.35
2018-07-06T15:03:32.876Z,24.57
2018-07-06T15:06:02.946Z,25.20
2018-07-06T15:08:32.904Z,25.12
2018-07-06T15:11:02.857Z,24.74
2018-07-06T15:13:32.788Z,24.19
2018-07-06T15:16:02.673Z,24.25
2018-07-06T15:18:32.413Z,23.99
2018-07-06T15:21:02.348Z,24.51
2018-07-06T15:23:32.435Z,24.45
2018-07-06T15:26:02.497Z,24.65
2018-07-06T15:28:32.504Z,24.54
2018-07-06T15:31:02.516Z,24.15
2018-07-06T15:33:32.467Z,24.00
2018-07-06T15:36:02.406Z,23.85
2018-07-06T15:38:32.445Z,23.85
2018-07-06T15:41:02.389Z,24.16
2018-07-06T15:43:32.306Z,24.14
2018-07-06T15:46:02.135Z,24.01
2018-07-06T15:48:32.011Z,23.95
2018-07-06T15:51:01.875Z,23.85
2018-07-06T15:53:31.687Z,23.69
2018-07-06T15:56:01.506Z,23.82
2018-07-06T15:58:31.303Z,24.12
2018-07-06T16:01:01.232Z,24.36
2018-07-06T16:03:31.073Z,24.37
2018-07-06T16:06:01.026Z,24.17
2018-07-06T16:08:30.919Z,24.38
2018-07-06T16:11:00.767Z,24.52
2018-07-06T16:13:30.593Z,24.86
2018-07-06T16:16:00.363Z,25.17
2018-07-06T16:18:30.220Z,25.38
2018-07-06T16:21:00.107Z,25.64
2018-07-06T16:23:29.927Z,25.59
2018-07-06T16:25:59.696Z,25.63
2018-07-06T16:28:29.637Z,25.52
2018-07-06T16:30:59.496Z,25.39
2018-07-06T16:33:29.404Z,25.65
2018-07-06T16:35:59.241Z,25.63
2018-07-06T16:38:29.029Z,25.73
2018-07-06T16:40:58.837Z,25.85
2018-07-06T16:43:28.722Z,25.83
2018-07-06T16:45:58.598Z,25.74
2018-07-06T16:48:28.476Z,26.16
2018-07-06T16:50:58.362Z,26.62
2018-07-06T16:53:28.131Z,26.53
2018-07-06T16:55:58.234Z,26.58
2018-07-06T16:58:28.086Z,26.34
2018-07-06T17:00:58.141Z,25.92
2018-07-06T17:03:27.986Z,25.85
2018-07-06T17:05:57.968Z,25.98
2018-07-06T17:08:28.005Z,26.48
2018-07-06T17:10:57.886Z,26.48
2018-07-06T17:13:27.755Z,26.02
2018-07-06T17:15:57.772Z,26.08
2018-07-06T17:18:29.200Z,25.55
2018-07-06T17:20:59.603Z,25.89
2018-07-06T17:23:29.408Z,26.00
2018-07-06T17:25:59.740Z,25.52
2018-07-06T17:28:29.622Z,24.85
2018-07-06T17:30:59.454Z,24.52
2018-07-06T17:33:29.404Z,24.86
2018-07-06T17:35:59.145Z,24.72
2018-07-06T17:38:29.050Z,25.17
2018-07-06T17:40:58.866Z,25.57
2018-07-06T17:43:29.402Z,25.62
2018-07-06T17:45:59.238Z,25.59
2018-07-06T17:48:29.238Z,26.28
2018-07-06T17:50:59.258Z,26.20
2018-07-06T17:53:29.199Z,26.23
2018-07-06T17:55:59.697Z,26.67
2018-07-06T17:58:29.644Z,26.80
2018-07-06T18:00:59.592Z,26.73
2018-07-06T18:03:29.425Z,27.23
2018-07-06T18:05:59.286Z,27.79
2018-07-06T18:08:31.413Z,27.59
2018-07-06T18:11:01.280Z,27.64
2018-07-06T18:13:31.234Z,26.67
2018-07-06T18:16:01.815Z,25.56
2018-07-06T18:18:32.849Z,24.88
2018-07-06T18:21:03.160Z,24.31
2018-07-06T18:23:33.857Z,23.89
2018-07-06T18:26:04.366Z,23.64
2018-07-06T18:28:34.627Z,23.34
2018-07-06T18:31:04.890Z,23.06
2018-07-06T18:33:34.765Z,22.80
2018-07-06T18:36:05.011Z,22.87
2018-07-06T18:38:35.317Z,23.02
2018-07-06T18:41:05.866Z,23.10
2018-07-06T18:43:35.942Z,22.81
2018-07-06T18:46:06.473Z,22.56
2018-07-06T18:48:37.427Z,22.17
2018-07-06T18:51:07.643Z,21.83
2018-07-06T18:53:37.926Z,21.63
2018-07-06T18:56:08.179Z,21.43
2018-07-06T18:58:38.105Z,21.25
2018-07-06T19:01:20.109Z,21.08
2018-07-06T19:03:49.676Z,20.94
2018-07-06T19:06:19.557Z,21.17
2018-07-06T19:08:50.510Z,21.08
2018-07-06T19:11:20.530Z,20.99
2018-07-06T19:13:50.466Z,20.76
2018-07-06T19:16:20.522Z,20.51
2018-07-06T19:18:50.510Z,20.29
2018-07-06T19:21:21.182Z,20.05
2018-07-06T19:23:51.313Z,19.85
2018-07-06T19:26:22.983Z,19.66
2018-07-06T19:28:53.816Z,19.48
2018-07-06T19:31:23.831Z,19.37
2018-07-06T19:33:53.932Z,19.02
2018-07-06T19:36:26.077Z,19.09
2018-07-06T19:38:57.012Z,18.96
2018-07-06T19:41:26.837Z,18.86
2018-07-06T19:43:56.995Z,18.78
2018-07-06T19:46:26.969Z,18.75
2018-07-06T19:48:58.432Z,18.63
2018-07-06T19:51:28.321Z,18.55
2018-07-06T19:53:58.305Z,18.48
2018-07-06T19:56:30.049Z,18.45
2018-07-06T19:58:59.942Z,18.40
2018-07-06T20:01:32.979Z,18.34
2018-07-06T20:04:03.512Z,18.28
2018-07-06T20:06:33.412Z,18.21
2018-07-06T20:09:03.982Z,18.16
2018-07-06T20:11:33.808Z,18.08
2018-07-06T20:14:04.117Z,18.00
2018-07-06T20:16:35.796Z,17.89
2018-07-06T20:19:05.729Z,17.85
2018-07-06T20:21:36.447Z,17.80
2018-07-06T20:24:07.582Z,17.73
2018-07-06T20:26:38.094Z,17.70
2018-07-06T20:29:08.805Z,17.63
2018-07-06T20:31:39.311Z,17.58
2018-07-06T20:34:09.902Z,17.55
2018-07-06T20:36:39.844Z,17.49
2018-07-06T20:39:10.732Z,17.46
2018-07-06T20:41:40.603Z,17.40
2018-07-06T20:44:10.452Z,17.33
2018-07-06T20:46:40.296Z,17.30
2018-07-06T20:49:10.153Z,17.26
2018-07-06T20:51:41.246Z,17.21
2018-07-06T20:54:11.148Z,17.13
2018-07-06T20:56:41.012Z,17.10
2018-07-06T20:59:10.828Z,17.07
2018-07-06T21:01:40.829Z,17.08
2018-07-06T21:04:10.685Z,17.08
2018-07-06T21:06:40.621Z,17.02
2018-07-06T21:09:10.609Z,16.94
2018-07-06T21:11:40.464Z,16.89
2018-07-06T21:14:10.663Z,16.87
2018-07-06T21:16:40.565Z,16.81
2018-07-06T21:19:10.373Z,16.80
2018-07-06T21:21:40.272Z,16.75
2018-07-06T21:24:10.171Z,16.73
2018-07-06T21:26:41.189Z,16.65
2018-07-06T21:29:10.972Z,16.58
2018-07-06T21:31:40.839Z,16.52
2018-07-06T21:34:10.788Z,16.55
2018-07-06T21:36:40.602Z,16.51
2018-07-06T21:39:10.557Z,16.42
2018-07-06T21:41:40.476Z,16.46
2018-07-06T21:44:10.288Z,16.67
2018-07-06T21:46:40.035Z,16.81
2018-07-06T21:49:09.929Z,16.95
2018-07-06T21:51:39.424Z,17.01
2018-07-06T21:54:09.327Z,17.01
2018-07-06T21:56:39.156Z,16.64
2018-07-06T21:59:09.071Z,16.93
2018-07-06T22:01:38.890Z,16.91
2018-07-06T22:04:08.803Z,17.03
2018-07-06T22:06:38.571Z,17.08
2018-07-06T22:09:08.552Z,17.07
2018-07-06T22:11:38.399Z,17.04
2018-07-06T22:14:08.304Z,17.07
2018-07-06T22:16:38.188Z,17.03
2018-07-06T22:19:07.558Z,16.84
2018-07-06T22:21:37.441Z,16.90
2018-07-06T22:24:07.459Z,16.85
2018-07-06T22:26:37.436Z,16.83
2018-07-06T22:29:07.387Z,16.97
2018-07-06T22:31:37.189Z,17.08
2018-07-06T22:34:06.994Z,17.22
2018-07-06T22:36:36.879Z,17.22
2018-07-06T22:39:08.081Z,17.17
2018-07-06T22:41:38.045Z,17.21
2018-07-06T22:44:07.931Z,17.08
2018-07-06T22:46:37.853Z,16.98
2018-07-06T22:49:07.778Z,16.88
2018-07-06T22:51:37.592Z,16.78
2018-07-06T22:54:07.439Z,16.70
2018-07-06T22:56:37.279Z,16.55
2018-07-06T22:59:07.208Z,16.49
2018-07-06T23:01:37.083Z,16.28
2018-07-06T23:04:06.948Z,16.16
2018-07-06T23:06:37.251Z,16.17
2018-07-06T23:09:08.187Z,16.19
2018-07-06T23:11:38.030Z,16.35
2018-07-06T23:14:07.849Z,16.40
2018-07-06T23:16:37.623Z,16.43
2018-07-06T23:19:07.419Z,16.52
2018-07-06T23:21:37.256Z,16.52
2018-07-06T23:24:07.187Z,16.51
2018-07-06T23:26:37.025Z,16.50
2018-07-06T23:29:06.951Z,16.44
2018-07-06T23:31:36.814Z,16.21
2018-07-06T23:34:06.787Z,16.18
2018-07-06T23:36:36.650Z,16.09
2018-07-06T23:39:06.722Z,16.13
2018-07-06T23:41:36.646Z,16.28
2018-07-06T23:44:06.639Z,16.31
2018-07-06T23:46:36.443Z,16.44
2018-07-06T23:49:06.269Z,16.34
2018-07-06T23:51:36.055Z,16.23
2018-07-06T23:54:05.986Z,16.25
2018-07-06T23:56:37.289Z,16.23
2018-07-06T23:59:07.098Z,16.14
